Time;durP1;ratioP1;P1;durP2;ratioP2;P2;SDS_P1;SDS_P2;PMS_P1;PMS_P2;Temp;Humidity;BMP_temperature;BMP_pressure;BME280_temperature;BME280_humidity;BME280_pressure;Samples;Min_cycle;Max_cycle;Signal;HPM_P1;HPM_P2
2023/04/23 00:02:05;;;;;;;8.80;6.20;;;;;;;6.72;69.65;95459.58;106746;1275;25532;-66
2023/04/23 00:04:37;;;;;;;8.70;5.90;;;;;;;6.61;69.63;95459.83;106667;1275;24282;-66
2023/04/23 00:07:06;;;;;;;7.70;5.50;;;;;;;6.57;70.10;95455.48;106816;1264;25389;-66
2023/04/23 00:09:34;;;;;;;8.80;6.20;;;;;;;6.54;70.50;95456.71;106848;1275;22559;-66
2023/04/23 00:12:06;;;;;;;8.30;5.40;;;;;;;6.52;70.64;95453.41;106715;1275;22527;-65
2023/04/23 00:14:35;;;;;;;8.60;5.30;;;;;;;6.48;70.62;95451.15;106651;1275;22878;-65
2023/04/23 00:17:03;;;;;;;9.70;5.70;;;;;;;6.40;70.32;95451.72;106749;1275;25264;-65
2023/04/23 00:19:31;;;;;;;8.90;6.20;;;;;;;6.31;70.28;95452.28;106627;1275;23917;-65
2023/04/23 00:21:59;;;;;;;7.50;5.70;;;;;;;6.28;70.65;95448.09;106584;1275;25591;-66
2023/04/23 00:24:28;;;;;;;7.80;6.00;;;;;;;6.25;70.48;95447.60;106712;1275;24194;-65
2023/04/23 00:26:56;;;;;;;8.10;6.10;;;;;;;6.26;70.73;95450.20;106919;1275;22520;-65
2023/04/23 00:29:24;;;;;;;7.80;5.60;;;;;;;6.23;70.97;95449.00;106543;1275;22527;-66
2023/04/23 00:31:53;;;;;;;8.50;5.70;;;;;;;6.20;71.69;95446.56;106797;1275;24232;-65
2023/04/23 00:34:21;;;;;;;6.30;5.00;;;;;;;6.20;71.22;95447.79;106551;1275;22520;-65
2023/04/23 00:36:49;;;;;;;8.40;6.10;;;;;;;6.19;70.96;95453.02;106809;1275;25367;-65
2023/04/23 00:39:18;;;;;;;8.40;5.70;;;;;;;6.20;70.84;95447.09;106890;1275;25947;-66
2023/04/23 00:41:47;;;;;;;6.40;5.40;;;;;;;6.23;71.98;95447.95;106997;1261;25214;-65
2023/04/23 00:44:15;;;;;;;10.10;6.30;;;;;;;6.20;71.74;95450.41;106805;1275;24249;-66
2023/04/23 00:46:45;;;;;;;8.30;6.10;;;;;;;6.18;71.32;95447.10;106654;1275;22654;-65
2023/04/23 00:49:14;;;;;;;8.60;6.20;;;;;;;6.18;70.96;95443.95;106833;1275;22555;-65
2023/04/23 00:51:42;;;;;;;8.80;6.00;;;;;;;6.19;70.56;95445.34;106863;1275;22966;-65
2023/04/23 00:54:11;;;;;;;6.80;5.10;;;;;;;6.19;70.51;95443.60;106593;1275;24335;-66
2023/04/23 00:56:39;;;;;;;9.80;6.20;;;;;;;6.19;70.71;95443.06;106618;1275;22637;-65
2023/04/23 00:59:08;;;;;;;8.60;5.40;;;;;;;6.16;70.72;95441.50;106531;1272;24219;-66
2023/04/23 01:01:36;;;;;;;9.80;6.30;;;;;;;6.14;70.62;95443.79;106613;1275;23139;-65
2023/04/23 01:04:05;;;;;;;8.40;5.50;;;;;;;6.14;70.72;95441.86;106669;1275;22643;-66
2023/04/23 01:06:34;;;;;;;8.70;5.80;;;;;;;6.13;70.65;95438.56;106723;1275;22532;-65
2023/04/23 01:09:02;;;;;;;9.90;6.70;;;;;;;6.09;71.42;95438.05;106654;1275;24228;-65
2023/04/23 01:11:31;;;;;;;9.70;5.20;;;;;;;6.06;72.17;95441.55;106621;1275;26656;-65
2023/04/23 01:14:00;;;;;;;8.10;4.90;;;;;;;6.08;72.09;95440.67;106667;1275;22789;-75
2023/04/23 01:16:28;;;;;;;10.60;5.50;;;;;;;6.14;71.87;95439.23;106721;1275;25329;-65
2023/04/23 01:18:57;;;;;;;7.20;5.60;;;;;;;6.20;72.08;95438.88;106635;1275;25504;-66
2023/04/23 01:21:25;;;;;;;7.20;5.20;;;;;;;6.24;71.97;95433.98;106644;1275;25169;-66
2023/04/23 01:23:54;;;;;;;7.00;5.20;;;;;;;6.29;71.95;95431.51;106628;1275;22646;-65
2023/04/23 01:26:23;;;;;;;6.80;5.10;;;;;;;6.34;72.08;95440.58;106621;1275;25387;-65
2023/04/23 01:28:52;;;;;;;11.20;5.80;;;;;;;6.33;72.39;95435.86;106672;1275;25457;-65
2023/04/23 01:31:22;;;;;;;8.20;5.20;;;;;;;6.28;72.26;95433.77;106670;1275;24376;-65
2023/04/23 01:33:52;;;;;;;8.30;4.80;;;;;;;6.34;72.07;95434.63;106660;1275;25309;-66
2023/04/23 01:36:23;;;;;;;8.60;5.90;;;;;;;6.33;72.95;95435.50;106761;1252;24403;-65
2023/04/23 01:38:52;;;;;;;10.00;5.40;;;;;;;6.36;73.48;95437.58;106657;1260;22632;-66
2023/04/23 01:41:20;;;;;;;7.80;5.30;;;;;;;6.41;73.22;95433.52;106734;1275;25227;-66
2023/04/23 01:43:48;;;;;;;10.50;6.00;;;;;;;6.45;73.15;95433.69;106555;1264;22795;-65
2023/04/23 01:46:17;;;;;;;9.20;5.50;;;;;;;6.48;73.07;95433.33;106616;1275;22547;-66
2023/04/23 01:48:45;;;;;;;7.20;5.40;;;;;;;6.53;72.74;95430.86;106621;1275;25533;-65
2023/04/23 01:51:14;;;;;;;7.10;5.20;;;;;;;6.57;72.43;95432.06;106612;1275;25255;-66
2023/04/23 01:53:42;;;;;;;7.10;5.60;;;;;;;6.61;72.43;95434.31;106549;1273;22531;-65
2023/04/23 01:56:10;;;;;;;8.90;5.60;;;;;;;6.56;72.52;95429.97;106587;1275;25320;-66
2023/04/23 01:58:39;;;;;;;8.90;5.40;;;;;;;6.47;72.74;95430.36;106616;1275;22528;-65
2023/04/23 02:01:07;;;;;;;7.60;5.70;;;;;;;6.40;72.72;95433.02;106616;1253;25499;-66
2023/04/23 02:03:35;;;;;;;6.40;5.00;;;;;;;6.41;72.38;95431.95;106700;1275;25393;-66
2023/04/23 02:06:04;;;;;;;6.70;5.10;;;;;;;6.45;72.07;95434.05;106718;1275;23913;-65
2023/04/23 02:08:33;;;;;;;7.60;5.00;;;;;;;6.46;71.75;95430.20;106727;1275;22974;-66
2023/04/23 02:11:01;;;;;;;8.70;5.60;;;;;;;6.44;71.75;95426.52;106676;1275;22528;-65
2023/04/23 02:13:29;;;;;;;6.70;5.20;;;;;;;6.40;72.09;95427.42;106673;1275;22525;-65
2023/04/23 02:15:58;;;;;;;7.10;5.30;;;;;;;6.36;71.86;95426.58;106650;1275;22780;-66
2023/04/23 02:18:26;;;;;;;7.10;4.60;;;;;;;6.35;71.79;95426.41;106603;1275;24206;-65
2023/04/23 02:20:55;;;;;;;7.10;5.50;;;;;;;6.33;71.63;95426.42;106638;1275;25326;-65
2023/04/23 02:23:23;;;;;;;6.70;4.80;;;;;;;6.33;71.76;95426.08;106694;1275;24193;-65
2023/04/23 02:25:52;;;;;;;7.60;5.80;;;;;;;6.29;72.18;95428.71;106509;1275;24212;-66
2023/04/23 02:28:20;;;;;;;7.00;5.90;;;;;;;6.26;73.08;95425.58;106663;1275;22640;-66
2023/04/23 02:30:48;;;;;;;10.90;7.10;;;;;;;6.23;73.78;95429.62;106591;1275;25467;-66
2023/04/23 02:33:18;;;;;;;13.30;8.00;;;;;;;6.18;73.60;95428.05;106754;1275;24202;-65
2023/04/23 02:35:46;;;;;;;10.60;6.30;;;;;;;6.14;73.66;95434.36;106666;1275;25715;-66
2023/04/23 02:38:15;;;;;;;6.70;4.90;;;;;;;6.12;73.24;95430.35;106629;1275;22528;-66
2023/04/23 02:40:43;;;;;;;9.10;5.90;;;;;;;6.11;73.49;95431.23;106627;1275;25296;-65
2023/04/23 02:43:12;;;;;;;8.20;5.30;;;;;;;6.06;73.88;95433.69;106715;1275;22641;-66
2023/04/23 02:45:40;;;;;;;7.70;5.00;;;;;;;6.01;73.44;95435.46;106530;1275;25396;-65
2023/04/23 02:48:08;;;;;;;8.10;5.90;;;;;;;5.97;74.65;95435.83;106673;1275;22755;-66
2023/04/23 02:50:39;;;;;;;6.80;4.70;;;;;;;5.94;73.80;95436.36;106605;1275;26651;-65
2023/04/23 02:53:08;;;;;;;10.00;5.80;;;;;;;5.93;73.72;95438.27;106600;1275;22802;-65
2023/04/23 02:55:36;;;;;;;9.10;5.30;;;;;;;5.96;73.88;95434.08;106616;1275;22601;-65
2023/04/23 02:58:04;;;;;;;6.40;5.00;;;;;;;5.98;73.63;95440.19;106604;1275;24388;-65
2023/04/23 03:00:33;;;;;;;7.40;5.00;;;;;;;5.96;73.58;95441.93;106596;1275;25379;-65
2023/04/23 03:03:01;;;;;;;9.00;5.50;;;;;;;5.99;73.64;95445.06;106583;1275;22537;-65
2023/04/23 03:05:29;;;;;;;7.70;5.00;;;;;;;5.97;73.60;95443.16;106629;1262;22625;-65
2023/04/23 03:07:58;;;;;;;8.80;5.60;;;;;;;5.94;74.03;95446.30;106535;1275;22520;-65
2023/04/23 03:10:26;;;;;;;7.30;4.90;;;;;;;5.96;73.80;95449.61;106644;1275;22555;-66
2023/04/23 03:12:55;;;;;;;7.90;5.10;;;;;;;5.97;74.09;95452.41;106559;1275;24047;-65
2023/04/23 03:15:26;;;;;;;8.60;5.40;;;;;;;6.02;73.90;95450.98;106696;1275;25508;-66
2023/04/23 03:17:54;;;;;;;8.80;5.70;;;;;;;6.06;73.93;95453.95;106595;1275;22525;-65
2023/04/23 03:20:23;;;;;;;8.10;5.60;;;;;;;6.11;73.90;95452.70;106675;1275;24321;-65
2023/04/23 03:22:51;;;;;;;8.00;5.50;;;;;;;6.12;73.63;95449.73;106652;1275;25321;-66
2023/04/23 03:25:21;;;;;;;15.70;6.30;;;;;;;6.15;74.02;95453.21;106678;1275;25587;-65
2023/04/23 03:27:49;;;;;;;11.50;6.70;;;;;;;6.15;74.03;95450.42;106726;1275;22539;-66
2023/04/23 03:30:18;;;;;;;17.60;10.40;;;;;;;6.07;74.16;95452.21;106574;1275;22623;-65
2023/04/23 03:32:49;;;;;;;9.60;6.20;;;;;;;6.02;74.34;95446.27;106671;1275;25429;-65
2023/04/23 03:35:17;;;;;;;8.90;6.10;;;;;;;5.99;73.98;95446.98;106608;1275;22522;-65
2023/04/23 03:37:47;;;;;;;12.70;6.40;;;;;;;5.98;73.96;95448.57;106680;1264;24375;-65
2023/04/23 03:40:15;;;;;;;7.60;5.60;;;;;;;5.93;73.90;95450.31;106620;1275;25461;-65
2023/04/23 03:42:46;;;;;;;9.70;5.40;;;;;;;5.86;73.64;95449.77;106604;1275;24260;-65
2023/04/23 03:45:15;;;;;;;8.10;5.80;;;;;;;5.77;73.61;95451.20;106688;1275;24228;-65
2023/04/23 03:47:44;;;;;;;9.00;6.40;;;;;;;5.74;73.75;95447.71;106700;1275;23888;-65
2023/04/23 03:50:12;;;;;;;8.10;5.80;;;;;;;5.75;74.00;95449.46;106624;1275;24369;-66
2023/04/23 03:52:41;;;;;;;10.60;6.50;;;;;;;5.72;73.79;95452.44;106600;1275;25507;-65
2023/04/23 03:55:13;;;;;;;9.30;5.80;;;;;;;5.69;73.57;95449.30;106591;1274;24399;-65
2023/04/23 03:57:44;;;;;;;10.10;5.70;;;;;;;5.68;73.59;95451.05;106668;1275;24388;-66
2023/04/23 04:00:21;;;;;;;7.60;5.70;;;;;;;5.62;73.42;95450.20;106608;1275;24353;-66
2023/04/23 04:02:50;;;;;;;12.70;7.70;;;;;;;5.59;73.38;95447.93;106660;1275;25337;-65
2023/04/23 04:05:18;;;;;;;8.60;5.80;;;;;;;5.58;73.75;95446.17;106564;1275;24387;-66
2023/04/23 04:07:46;;;;;;;8.10;5.80;;;;;;;5.54;73.57;95448.10;106624;1275;26570;-66
2023/04/23 04:10:17;;;;;;;7.00;5.80;;;;;;;5.49;73.68;95454.04;106665;1275;22508;-66
2023/04/23 04:12:46;;;;;;;9.70;6.00;;;;;;;5.47;73.79;95455.79;106636;1275;22791;-65
2023/04/23 04:15:16;;;;;;;10.60;6.70;;;;;;;5.48;74.06;95457.36;106607;1275;25412;-66
2023/04/23 04:17:44;;;;;;;10.20;6.60;;;;;;;5.49;74.01;95455.96;106722;1275;25471;-65
2023/04/23 04:20:13;;;;;;;10.80;7.20;;;;;;;5.50;73.91;95459.98;106695;1275;25353;-65
2023/04/23 04:22:41;;;;;;;7.60;5.20;;;;;;;5.50;73.90;95464.16;106632;1275;25457;-65
2023/04/23 04:25:09;;;;;;;9.90;7.20;;;;;;;5.46;73.87;95466.27;106707;1275;25334;-66
2023/04/23 04:27:40;;;;;;;11.30;7.40;;;;;;;5.46;74.79;95465.04;106704;1275;22528;-65
2023/04/23 04:30:09;;;;;;;15.20;8.50;;;;;;;5.43;74.63;95468.54;106829;1275;23895;-65
2023/04/23 04:32:39;;;;;;;13.10;7.80;;;;;;;5.39;76.21;95470.10;106740;1275;22520;-65
2023/04/23 04:35:08;;;;;;;14.90;8.90;;;;;;;5.39;75.73;95478.48;106613;1275;25213;-65
2023/04/23 04:37:36;;;;;;;8.70;6.10;;;;;;;5.42;75.89;95481.79;106716;1275;22516;-65
2023/04/23 04:40:06;;;;;;;9.90;7.00;;;;;;;5.48;76.11;95481.44;106650;1275;22570;-65
2023/04/23 04:42:35;;;;;;;10.30;7.90;;;;;;;5.55;76.31;95485.61;106640;1275;22637;-65
2023/04/23 04:45:04;;;;;;;8.90;6.50;;;;;;;5.64;76.24;95486.84;106646;1253;22532;-65
2023/04/23 04:47:33;;;;;;;11.80;7.80;;;;;;;5.74;75.97;95488.03;106664;1275;22553;-65
2023/04/23 04:50:02;;;;;;;9.40;6.70;;;;;;;5.81;76.10;95489.58;106707;1275;22552;-65
2023/04/23 04:52:31;;;;;;;12.80;7.50;;;;;;;5.85;76.06;95492.90;106687;1275;23008;-65
2023/04/23 04:54:59;;;;;;;9.30;7.10;;;;;;;5.92;75.89;95492.55;106643;1275;22795;-65
2023/04/23 04:57:28;;;;;;;9.60;7.10;;;;;;;6.00;75.84;95491.67;106550;1262;24368;-65
2023/04/23 05:00:03;;;;;;;13.20;7.30;;;;;;;6.01;75.49;95496.58;106703;1275;22640;-65
2023/04/23 05:02:32;;;;;;;12.20;8.20;;;;;;;5.97;76.12;95498.34;106641;1275;22534;-70
2023/04/23 05:05:00;;;;;;;13.80;8.70;;;;;;;6.00;76.08;95499.20;106622;1275;22556;-65
2023/04/23 05:07:28;;;;;;;13.70;8.80;;;;;;;6.10;75.96;95496.18;106660;1275;25486;-65
2023/04/23 05:09:56;;;;;;;18.50;11.70;;;;;;;6.16;75.64;95500.54;106602;1275;22520;-65
2023/04/23 05:12:24;;;;;;;18.90;11.00;;;;;;;6.19;75.68;95496.16;106705;1275;25211;-65
2023/04/23 05:14:53;;;;;;;15.20;10.40;;;;;;;6.22;75.38;95500.52;106743;1275;22619;-65
2023/04/23 05:17:21;;;;;;;11.60;8.20;;;;;;;6.27;75.76;95503.30;106546;1275;22537;-65
2023/04/23 05:19:50;;;;;;;20.40;12.50;;;;;;;6.31;76.43;95503.82;106668;1275;24044;-65
2023/04/23 05:22:18;;;;;;;17.70;10.50;;;;;;;6.34;76.78;95505.36;106680;1275;24328;-65
2023/04/23 05:24:46;;;;;;;17.50;11.90;;;;;;;6.35;76.54;95504.50;106635;1275;22629;-65
2023/04/23 05:27:15;;;;;;;51.00;27.20;;;;;;;6.38;76.39;95504.30;106623;1275;24378;-65
2023/04/23 05:29:43;;;;;;;57.30;32.30;;;;;;;6.45;76.13;95504.29;106930;1275;22549;-65
2023/04/23 05:32:11;;;;;;;69.90;38.30;;;;;;;6.57;75.93;95504.58;106942;1275;22518;-65
2023/04/23 05:34:40;;;;;;;53.10;30.90;;;;;;;6.76;75.52;95500.13;106656;1275;22521;-65
2023/04/23 05:37:09;;;;;;;44.70;27.10;;;;;;;6.94;75.16;95499.84;106707;1275;25388;-65
2023/04/23 05:39:38;;;;;;;44.50;25.30;;;;;;;7.13;74.55;95500.94;106611;1275;22792;-65
2023/04/23 05:42:06;;;;;;;32.70;19.90;;;;;;;7.31;74.00;95490.13;106575;1275;22517;-65
2023/04/23 05:44:34;;;;;;;19.80;13.50;;;;;;;7.49;73.75;95489.30;106699;1275;22526;-65
2023/04/23 05:47:02;;;;;;;16.80;12.10;;;;;;;7.62;73.19;95496.19;106620;1265;22523;-65
2023/04/23 05:49:30;;;;;;;17.10;10.40;;;;;;;7.75;72.89;95495.54;106701;1265;24259;-65
2023/04/23 05:52:01;;;;;;;17.70;11.20;;;;;;;7.88;72.53;95502.09;106673;1275;22534;-65
2023/04/23 05:54:29;;;;;;;16.20;10.20;;;;;;;8.03;71.87;95497.20;106783;1275;25319;-65
2023/04/23 05:56:58;;;;;;;17.40;11.40;;;;;;;8.25;71.25;95500.13;106795;1275;23892;-65
2023/04/23 05:59:26;;;;;;;14.60;8.80;;;;;;;8.52;71.23;95498.97;106532;1275;22547;-65
2023/04/23 06:01:54;;;;;;;10.40;7.50;;;;;;;8.80;69.84;95498.26;106889;1275;24264;-65
2023/04/23 06:04:22;;;;;;;11.50;8.30;;;;;;;9.01;68.80;95498.15;106822;1275;22514;-65
2023/04/23 06:06:51;;;;;;;10.90;7.80;;;;;;;9.17;69.21;95497.04;106797;1275;23932;-65
2023/04/23 06:09:20;;;;;;;10.80;8.40;;;;;;;9.28;68.29;95494.96;106703;1275;22563;-65
2023/04/23 06:11:51;;;;;;;10.50;8.10;;;;;;;9.39;67.89;95494.44;106686;1275;24371;-65
2023/04/23 06:14:19;;;;;;;14.60;7.60;;;;;;;9.59;67.43;95493.59;106666;1275;26605;-65
2023/04/23 06:16:47;;;;;;;11.50;7.40;;;;;;;9.78;65.94;95492.91;106657;1275;22527;-65
2023/04/23 06:19:16;;;;;;;13.20;8.60;;;;;;;9.91;66.63;95496.04;106662;1275;22701;-65
2023/04/23 06:21:44;;;;;;;12.00;7.40;;;;;;;10.00;66.37;95489.88;106804;1275;22520;-65
2023/04/23 06:24:12;;;;;;;11.10;8.20;;;;;;;10.09;66.15;95496.06;106624;1275;24199;-65
2023/04/23 06:26:40;;;;;;;11.60;7.90;;;;;;;10.20;66.24;95495.17;106628;1275;22521;-65
2023/04/23 06:29:11;;;;;;;12.40;8.30;;;;;;;10.36;66.03;95496.11;106556;1275;22528;-65
2023/04/23 06:32:02;;;;;;;10.40;7.50;;;;;;;10.52;65.16;95494.39;106608;1275;22520;-65
2023/04/23 06:34:30;;;;;;;11.10;8.60;;;;;;;10.61;64.62;95494.04;106703;1275;22705;-65
2023/04/23 06:36:59;;;;;;;18.40;10.30;;;;;;;10.70;64.86;95494.04;106583;1275;22513;-65
2023/04/23 06:39:27;;;;;;;11.20;8.00;;;;;;;10.75;64.86;95494.08;106637;1275;22562;-65
2023/04/23 06:41:56;;;;;;;18.40;11.00;;;;;;;10.79;63.80;95491.53;106767;1275;23738;-65
2023/04/23 06:44:45;;;;;;;11.60;8.40;;;;;;;10.82;63.67;95489.71;106775;1275;22554;-65
2023/04/23 06:47:13;;;;;;;12.40;7.90;;;;;;;10.83;63.47;95487.42;106535;1275;24340;-65
2023/04/23 06:49:42;;;;;;;8.50;7.00;;;;;;;10.91;63.86;95487.43;106557;1275;22535;-65
2023/04/23 06:52:10;;;;;;;8.80;6.60;;;;;;;11.05;63.39;95489.75;106667;1275;22525;-65
2023/04/23 06:54:38;;;;;;;8.10;6.50;;;;;;;11.19;61.90;95482.23;106653;1275;24258;-65
2023/04/23 06:57:08;;;;;;;9.40;7.00;;;;;;;11.38;62.35;95479.16;106552;1275;22636;-65
2023/04/23 06:59:36;;;;;;;8.00;6.70;;;;;;;11.52;61.20;95479.52;106646;1275;25404;-65
2023/04/23 07:02:05;;;;;;;9.50;6.70;;;;;;;11.59;60.37;95478.83;106619;1275;22595;-65
2023/04/23 07:04:35;;;;;;;10.70;6.70;;;;;;;11.69;59.91;95475.94;106607;1275;22531;-65
2023/04/23 07:07:03;;;;;;;8.10;5.70;;;;;;;11.86;58.71;95471.83;106617;1275;22530;-65
2023/04/23 07:09:32;;;;;;;12.00;6.20;;;;;;;12.04;56.34;95471.91;106793;1275;25975;-65
2023/04/23 07:12:01;;;;;;;10.00;6.00;;;;;;;12.26;57.32;95471.32;106638;1275;22524;-66
2023/04/23 07:14:29;;;;;;;7.90;5.90;;;;;;;12.49;57.39;95470.36;106562;1275;25298;-65
2023/04/23 07:16:58;;;;;;;8.90;5.50;;;;;;;12.70;54.71;95470.96;106526;1275;24358;-65
2023/04/23 07:19:26;;;;;;;7.40;5.10;;;;;;;12.87;54.72;95466.42;106685;1275;24372;-65
2023/04/23 07:21:54;;;;;;;7.10;5.40;;;;;;;13.04;55.12;95463.27;106542;1275;24204;-65
2023/04/23 07:24:25;;;;;;;7.90;5.40;;;;;;;13.22;55.00;95461.82;106601;1275;22518;-65
2023/04/23 07:26:53;;;;;;;7.10;5.10;;;;;;;13.40;51.79;95463.05;106984;1275;24991;-65
2023/04/23 07:29:22;;;;;;;6.70;5.20;;;;;;;13.56;51.94;95460.42;107010;1275;22647;-65
2023/04/23 07:31:50;;;;;;;7.90;5.20;;;;;;;13.75;52.24;95458.77;106886;1275;22577;-65
2023/04/23 07:34:18;;;;;;;9.30;4.90;;;;;;;13.93;50.13;95459.73;107035;1275;25829;-65
2023/04/23 07:36:46;;;;;;;7.10;5.20;;;;;;;14.11;51.55;95460.19;106628;1275;22929;-65
2023/04/23 07:39:15;;;;;;;7.50;5.00;;;;;;;14.27;51.10;95455.02;106562;1275;25633;-65
2023/04/23 07:41:43;;;;;;;8.90;6.20;;;;;;;14.44;50.29;95453.02;106872;1275;22807;-65
2023/04/23 07:44:11;;;;;;;7.10;4.90;;;;;;;14.58;49.58;95455.91;106531;1275;22636;-65
2023/04/23 07:46:39;;;;;;;7.10;5.20;;;;;;;14.76;50.33;95453.46;106591;1275;25354;-65
2023/04/23 07:49:08;;;;;;;8.70;4.90;;;;;;;14.95;48.24;95447.44;106695;1275;22618;-65
2023/04/23 07:51:36;;;;;;;7.90;5.60;;;;;;;15.07;46.79;95444.67;106687;1275;24203;-66
2023/04/23 07:54:05;;;;;;;6.40;4.90;;;;;;;15.23;45.45;95444.77;106688;1271;22547;-65
2023/04/23 07:56:35;;;;;;;6.80;4.80;;;;;;;15.43;44.31;95440.95;106629;1275;24252;-65
2023/04/23 07:59:06;;;;;;;9.80;4.80;;;;;;;15.60;42.76;95441.17;106890;1275;22636;-63
2023/04/23 08:01:34;;;;;;;6.60;4.90;;;;;;;15.83;44.64;95440.27;106926;1275;22535;-63
2023/04/23 08:04:02;;;;;;;6.80;4.70;;;;;;;16.00;41.56;95434.93;107006;1275;22539;-63
2023/04/23 08:06:33;;;;;;;10.10;5.00;;;;;;;16.00;40.97;95440.09;106835;1275;22643;-63
2023/04/23 08:09:05;;;;;;;8.70;5.20;;;;;;;15.94;42.29;95442.27;106788;1275;23236;-63
2023/04/23 08:11:34;;;;;;;6.40;5.20;;;;;;;15.95;41.70;95439.91;106636;1275;24852;-63
2023/04/23 08:14:02;;;;;;;10.00;5.30;;;;;;;16.06;40.31;95436.81;106573;1259;24264;-64
2023/04/23 08:16:30;;;;;;;8.00;4.90;;;;;;;16.24;39.06;95436.55;106610;1275;25328;-64
2023/04/23 08:18:59;;;;;;;8.30;4.90;;;;;;;16.40;39.79;95437.80;106641;1261;23937;-64
2023/04/23 08:21:31;;;;;;;5.80;4.80;;;;;;;16.49;41.07;95436.19;106603;1275;22865;-64
2023/04/23 08:24:01;;;;;;;8.00;5.00;;;;;;;16.49;41.20;95434.61;106630;1275;25487;-64
2023/04/23 08:26:30;;;;;;;7.20;4.30;;;;;;;16.44;39.40;95438.54;106643;1275;25491;-64
2023/04/23 08:29:02;;;;;;;8.30;4.80;;;;;;;16.43;38.94;95436.41;106591;1275;24382;-64
2023/04/23 08:31:30;;;;;;;5.60;4.90;;;;;;;16.30;37.52;95436.47;106576;1253;23903;-65
2023/04/23 08:33:59;;;;;;;7.40;4.80;;;;;;;16.14;37.81;95433.29;106678;1275;22532;-64
2023/04/23 08:36:28;;;;;;;6.90;4.70;;;;;;;16.10;39.92;95430.42;106551;1275;22584;-64
2023/04/23 08:38:56;;;;;;;7.50;5.40;;;;;;;16.10;39.70;95430.61;106603;1275;22588;-65
2023/04/23 08:41:33;;;;;;;7.80;5.00;;;;;;;16.09;39.11;95430.48;106533;1275;23140;-65
2023/04/23 08:44:11;;;;;;;7.60;5.20;;;;;;;16.09;39.83;95430.68;106664;1275;25221;-65
2023/04/23 08:46:43;;;;;;;8.70;4.90;;;;;;;16.13;40.46;95428.36;106638;1275;25491;-65
2023/04/23 08:49:15;;;;;;;7.40;4.60;;;;;;;16.13;40.06;95430.67;106623;1275;25469;-65
2023/04/23 08:51:53;;;;;;;4.90;4.40;;;;;;;16.14;39.54;95433.12;106677;1275;24530;-65
2023/04/23 08:54:26;;;;;;;7.00;4.50;;;;;;;16.09;38.58;95429.08;106564;1275;23322;-65
2023/04/23 08:57:00;;;;;;;6.40;5.00;;;;;;;16.08;38.85;95427.70;106626;1275;24002;-64
2023/04/23 08:59:33;;;;;;;7.10;4.50;;;;;;;16.11;39.58;95431.11;106600;1275;24269;-65
2023/04/23 09:02:08;;;;;;;7.90;4.50;;;;;;;16.09;37.30;95432.63;106624;1275;22517;-65
2023/04/23 09:04:37;;;;;;;5.70;4.50;;;;;;;16.09;38.61;95432.61;106637;1262;25324;-66
2023/04/23 09:07:10;;;;;;;4.60;4.00;;;;;;;16.11;38.16;95432.89;106650;1275;22552;-64
2023/04/23 09:09:39;;;;;;;4.90;4.40;;;;;;;16.06;37.56;95432.72;106609;1275;22903;-65
2023/04/23 09:12:08;;;;;;;4.60;4.10;;;;;;;15.97;37.39;95434.52;106641;1275;25407;-65
2023/04/23 09:14:37;;;;;;;6.60;4.20;;;;;;;15.91;38.12;95438.31;106629;1275;24364;-65
2023/04/23 09:17:05;;;;;;;6.20;4.30;;;;;;;15.85;39.33;95439.45;106606;1265;25204;-65
2023/04/23 09:19:35;;;;;;;6.80;4.80;;;;;;;15.82;39.69;95436.05;106719;1275;22599;-65
2023/04/23 09:22:03;;;;;;;6.90;4.80;;;;;;;15.77;41.47;95437.66;106817;1275;22786;-65
2023/04/23 09:24:33;;;;;;;6.40;4.60;;;;;;;15.67;42.80;95440.16;106618;1275;24333;-65
2023/04/23 09:27:02;;;;;;;6.20;4.90;;;;;;;15.54;43.94;95444.04;106951;1275;25384;-65
2023/04/23 09:29:31;;;;;;;6.60;4.60;;;;;;;15.38;45.98;95452.31;106630;1275;25507;-65
2023/04/23 09:32:09;;;;;;;5.20;4.50;;;;;;;15.14;45.96;95458.58;106746;1275;22524;-65
2023/04/23 09:34:37;;;;;;;8.20;5.10;;;;;;;14.94;45.13;95460.77;106646;1275;22554;-66
2023/04/23 09:37:10;;;;;;;6.10;5.10;;;;;;;14.83;45.08;95464.20;106602;1272;24223;-65
2023/04/23 09:39:38;;;;;;;6.30;4.60;;;;;;;14.71;44.74;95458.43;106616;1275;22566;-65
2023/04/23 09:42:10;;;;;;;7.90;5.10;;;;;;;14.66;45.38;95458.97;106596;1275;24219;-65
2023/04/23 09:44:38;;;;;;;7.90;4.70;;;;;;;14.67;46.65;95455.04;106593;1275;22887;-65
2023/04/23 09:47:08;;;;;;;7.00;4.50;;;;;;;14.69;47.05;95457.81;106613;1275;22654;-65
2023/04/23 09:49:47;;;;;;;4.80;4.30;;;;;;;14.68;48.05;95452.52;107035;1275;22536;-65
2023/04/23 09:52:17;;;;;;;5.70;4.90;;;;;;;14.68;47.93;95453.05;106627;1274;24257;-65
2023/04/23 09:54:45;;;;;;;5.90;4.60;;;;;;;14.68;48.12;95448.47;106851;1274;25237;-65
2023/04/23 09:57:14;;;;;;;6.40;4.50;;;;;;;14.71;48.78;95450.27;106562;1275;25528;-71
2023/04/23 09:59:42;;;;;;;10.20;4.80;;;;;;;14.70;50.27;95446.77;106616;1275;25425;-65
2023/04/23 10:02:18;;;;;;;6.60;4.50;;;;;;;14.67;50.92;95447.41;106597;1275;25390;-65
2023/04/23 10:04:51;;;;;;;5.80;4.40;;;;;;;14.66;48.98;95446.74;106683;1275;22563;-65
2023/04/23 10:07:31;;;;;;;6.80;4.10;;;;;;;14.67;46.93;95446.00;106720;1274;26574;-65
2023/04/23 10:10:00;;;;;;;5.70;4.50;;;;;;;14.68;45.85;95443.68;106650;1275;22581;-65
2023/04/23 10:12:28;;;;;;;4.70;4.20;;;;;;;14.65;45.38;95440.95;106592;1275;25346;-65
2023/04/23 10:15:16;;;;;;;6.70;3.90;;;;;;;14.61;44.94;95435.44;106566;1275;22630;-65
2023/04/23 10:17:47;;;;;;;6.30;4.20;;;;;;;14.58;45.37;95434.30;106556;1275;25349;-65
2023/04/23 10:20:15;;;;;;;7.60;4.90;;;;;;;14.57;45.11;95434.35;106609;1275;22773;-65
2023/04/23 10:22:45;;;;;;;8.70;6.10;;;;;;;14.58;44.79;95428.66;106661;1275;24990;-65
2023/04/23 10:25:14;;;;;;;7.30;4.40;;;;;;;14.56;41.67;95428.36;106602;1275;22532;-65
2023/04/23 10:27:46;;;;;;;7.40;4.70;;;;;;;14.62;43.33;95423.34;106655;1275;24368;-65
2023/04/23 10:30:21;;;;;;;5.60;4.20;;;;;;;14.67;44.55;95423.16;106598;1275;22694;-65
2023/04/23 10:32:50;;;;;;;6.30;4.00;;;;;;;14.69;44.71;95421.32;106615;1275;25386;-65
2023/04/23 10:35:19;;;;;;;7.90;4.60;;;;;;;14.73;46.58;95415.70;106807;1275;22744;-65
2023/04/23 10:37:48;;;;;;;6.90;5.10;;;;;;;14.80;46.44;95411.02;106582;1267;24207;-65
2023/04/23 10:40:23;;;;;;;5.10;4.20;;;;;;;14.77;43.59;95422.44;106629;1275;22747;-65
2023/04/23 10:42:52;;;;;;;5.60;4.20;;;;;;;14.74;40.18;95406.79;106651;1275;23892;-65
2023/04/23 10:45:20;;;;;;;6.20;5.10;;;;;;;14.80;39.94;95404.45;106642;1275;22528;-65
2023/04/23 10:47:56;;;;;;;4.60;4.10;;;;;;;14.92;39.28;95403.09;106572;1275;22531;-65
2023/04/23 10:50:29;;;;;;;6.80;4.40;;;;;;;15.11;40.38;95400.96;106669;1275;22757;-65
2023/04/23 10:52:58;;;;;;;;;;;;;;;15.33;40.53;95398.67;106662;1275;25304;-65
2023/04/23 10:55:29;;;;;;;5.90;4.60;;;;;;;15.54;39.98;95392.27;106605;1275;24828;-65
2023/04/23 10:58:05;;;;;;;8.50;5.00;;;;;;;15.81;40.04;95388.54;106633;1275;22726;-65
2023/04/23 11:00:45;;;;;;;6.20;4.40;;;;;;;16.16;39.92;95382.77;106593;1275;22517;-66
2023/04/23 11:03:33;;;;;;;5.40;4.30;;;;;;;16.78;40.52;95376.48;106726;1275;24222;-65
2023/04/23 11:06:03;;;;;;;4.80;4.00;;;;;;;17.53;38.79;95373.58;106599;1275;22527;-65
2023/04/23 11:08:34;;;;;;;4.30;3.70;;;;;;;18.13;39.46;95373.08;106710;1275;24240;-63
2023/04/23 11:11:08;;;;;;;7.10;4.10;;;;;;;18.45;36.97;95373.19;106673;1275;22570;-63
2023/04/23 11:13:51;;;;;;;4.60;4.10;;;;;;;18.39;35.76;95377.41;106837;1275;22549;-63
2023/04/23 11:16:22;;;;;;;6.10;4.50;;;;;;;18.28;35.51;95376.26;106659;1275;26620;-64
2023/04/23 11:19:03;;;;;;;4.70;4.10;;;;;;;18.21;35.96;95374.67;106819;1275;22508;-65
2023/04/23 11:22:00;;;;;;;5.80;3.80;;;;;;;18.06;35.70;95375.41;106933;1275;22558;-65
2023/04/23 11:24:35;;;;;;;13.60;8.30;;;;;;;17.80;35.71;95377.78;106911;1275;25316;-65
2023/04/23 11:27:06;;;;;;;13.00;8.80;;;;;;;17.62;36.05;95380.10;107013;1275;22529;-65
2023/04/23 11:29:36;;;;;;;5.90;4.60;;;;;;;17.40;35.60;95379.58;106593;1275;24242;-65
2023/04/23 11:32:12;;;;;;;7.10;4.10;;;;;;;17.20;35.46;95377.54;106615;1275;22569;-65
2023/04/23 11:34:43;;;;;;;6.00;4.40;;;;;;;17.11;36.51;95380.64;106948;1275;22520;-65
2023/04/23 11:37:16;;;;;;;5.90;4.10;;;;;;;16.97;35.55;95379.31;106697;1264;22526;-65
2023/04/23 11:39:46;;;;;;;4.70;4.10;;;;;;;16.88;35.80;95380.44;106202;1275;22561;-65